Latest Weather Observations for Maria Island

IDT60901

Issued at 11:31 pm EDT Sunday 14 February 2016 (issued every 10 minutes, with the page automatically refreshed every 10 minutes)

About weather observations | Map of Hobart area stations | Latest observations for Hobart area | Other Formats
Station Details ID: 092124 Name: MARIA ISLAND (POINT LESUEUR) Lat: -42.66 Lon: 148.02 Height: 28.0 m
Data from the previous 72 hours. | See also: Recent months at Maria Island
Date/Time
EDT
Tmp

°C
App
Tmp
°C
Dew
Point
°C
Rel
Hum
%
Delta-T

°C
Wind Press
QNH
hPa
Press
MSL
hPa
Rain
since
9 am
mm
Dir
 
Spd
km/h
Gust
km/h
Spd
kts
Gust
kts
14/11:30pm 14.5 9.6 4.2 50 4.8 W 19 22 10 12 1008.6 1008.5 0.0
14/11:00pm 14.6 10.5 4.6 51 4.7 W 15 20 8 11 1008.6 1008.5 0.0
14/10:30pm 15.1 9.3 4.5 49 4.9 W 24 30 13 16 1008.4 1008.3 0.0
14/10:00pm 15.3 9.3 5.2 51 4.8 W 26 39 14 21 1008.0 1007.9 0.0
14/09:30pm 15.5 9.5 5.1 50 4.9 WSW 26 33 14 18 1007.8 1007.7 0.0
14/09:00pm 15.8 8.7 5.4 50 5.0 WSW 32 44 17 24 1007.1 1007.0 0.0
14/08:30pm 16.1 9.9 4.5 46 5.4 WSW 26 35 14 19 1006.6 1006.5 0.0
14/08:00pm 16.7 8.9 5.0 46 5.6 WSW 35 43 19 23 1006.0 1005.9 0.0
14/07:30pm 17.2 9.6 5.8 47 5.5 WSW 35 44 19 24 1005.2 1005.1 0.0
14/07:00pm 18.4 11.3 5.6 43 6.3 WSW 32 39 17 21 1004.3 1004.2 0.0
14/06:30pm 18.8 11.0 4.9 40 6.7 WSW 35 50 19 27 1004.0 1003.9 0.0
14/06:20pm 18.6 11.3 4.4 39 6.8 WSW 32 50 17 27 1003.6 1003.5 0.0
14/06:00pm 19.1 13.0 4.8 39 6.9 WSW 26 35 14 19 1003.7 1003.6 0.0
14/05:30pm 19.6 13.1 8.0 47 6.0 WSW 32 44 17 24 1003.3 1003.2 0.0
14/05:00pm 19.1 12.6 8.1 49 5.7 SW 32 39 17 21 1002.6 1002.5 0.0
14/04:40pm 20.3 12.9 5.1 37 7.4 WSW 33 54 18 29 1002.1 1002.0 0.0
14/04:30pm 20.6 9.9 6.5 40 7.1 W 52 65 28 35 1001.8 1001.7 0.0
14/04:00pm 20.7 11.4 9.3 48 6.1 W 48 59 26 32 1001.5 1001.4 0.0
14/03:30pm 20.4 11.1 9.3 49 5.9 W 48 69 26 37 1001.3 1001.2 0.0
14/03:01pm 20.0 12.7 10.1 53 5.3 W 39 57 21 31 1001.8 1001.7 0.0
14/03:00pm 19.7 11.9 9.6 52 5.4 W 41 57 22 31 1001.7 1001.6 0.0
14/02:46pm 19.7 10.4 9.3 51 5.5 W 48 67 26 36 1000.8 1000.7 0.0
14/02:31pm 22.1 13.8 7.9 40 7.4 WNW 41 61 22 33 1000.6 1000.5 0.0
14/02:30pm 21.9 13.1 7.3 39 7.5 WNW 43 61 23 33 1000.6 1000.5 0.0
14/02:08pm 22.1 13.9 8.2 41 7.3 WNW 41 59 22 32 1000.6 1000.5 0.0
14/02:00pm 20.4 12.8 7.7 44 6.6 W 37 48 20 26 1000.9 1000.8 0.0
14/01:30pm 21.4 13.6 8.3 43 6.9 WNW 39 54 21 29 1000.8 1000.7 0.0
14/01:00pm 20.7 10.5 8.4 45 6.5 W 52 65 28 35 1000.5 1000.4 0.0
14/12:35pm 21.1 12.3 7.3 41 7.1 WNW 43 63 23 34 1000.4 1000.3 0.0
14/12:30pm 21.9 13.4 7.0 38 7.7 WNW 41 59 22 32 1000.5 1000.4 0.0
14/12:20pm 21.6 12.5 5.9 36 7.9 WNW 43 67 23 36 1000.4 1000.3 0.0
14/12:00pm 20.8 12.1 6.0 38 7.4 WNW 41 54 22 29 1000.7 1000.6 0.0
14/11:37am 20.6 13.7 6.5 40 7.1 W 32 44 17 24 1001.0 1000.9 0.0
14/11:30am 20.4 12.5 6.4 40 7.0 W 37 52 20 28 1001.0 1000.9 0.0
14/11:04am 20.8 13.8 6.0 38 7.4 WNW 32 54 17 29 1001.0 1000.9 0.0
14/11:00am 20.3 15.1 5.5 38 7.3 NW 22 41 12 22 1001.3 1001.2 0.0
14/10:30am 19.1 12.4 8.1 49 5.7 WNW 33 56 18 30 1001.5 1001.4 0.0
14/10:28am 19.3 12.6 7.4 46 6.1 NW 32 56 17 30 1001.4 1001.3 0.0
14/10:27am 19.5 13.0 6.6 43 6.5 NW 30 50 16 27 1001.6 1001.5 0.0
14/10:00am 18.0 13.5 9.9 59 4.3 N 24 30 13 16 1001.9 1001.8 0.0
14/09:30am 17.9 12.8 9.3 57 4.5 N 26 32 14 17 1002.2 1002.1 0.0
14/09:00am 16.3 10.2 8.3 59 4.1 N 30 35 16 19 1002.3 1002.2 0.0
14/08:30am 16.2 9.7 8.2 59 4.1 N 32 35 17 19 1002.2 1002.1 0.0
14/08:00am 16.3 9.2 8.0 58 4.2 N 35 41 19 22 1002.0 1001.9 0.0
14/07:30am 16.4 9.9 8.1 58 4.2 N 32 37 17 20 1002.2 1002.1 0.0
14/07:00am 16.2 12.3 6.9 54 4.6 NNW 17 26 9 14 1002.2 1002.1 0.0
14/06:30am 15.9 11.3 6.3 53 4.7 NW 20 26 11 14 1002.2 1002.1 0.0
14/06:00am 15.7 10.6 6.2 53 4.6 NNW 22 32 12 17 1001.6 1001.5 0.0
14/05:30am 15.9 12.3 6.6 54 4.6 NNW 15 24 8 13 1001.8 1001.7 0.0
14/05:00am 15.9 12.2 6.1 52 4.8 NW 15 26 8 14 1001.6 1001.5 0.0
14/04:30am 16.1 9.7 6.8 54 4.6 WNW 30 35 16 19 1001.8 1001.7 0.0
14/04:00am 16.1 10.1 7.1 55 4.5 NW 28 32 15 17 1001.9 1001.8 0.0
14/03:30am 16.4 8.6 8.1 58 4.2 WNW 39 50 21 27 1001.7 1001.6 0.0
14/03:00am 16.3 8.6 8.8 61 3.9 W 39 46 21 25 1001.4 1001.3 0.0
14/02:51am 16.4 9.8 8.4 59 4.1 WNW 33 46 18 25 1001.3 1001.2 0.0
14/02:30am 16.6 12.2 8.8 60 4.0 WNW 22 32 12 17 1001.8 1001.7 0.0
14/02:00am 16.9 12.2 9.3 61 4.0 W 24 33 13 18 1002.0 1001.9 0.0
14/01:30am 17.5 12.1 10.9 65 3.6 WSW 30 35 16 19 1002.3 1002.2 0.0
14/01:00am 17.8 16.2 13.9 78 2.2 SW 15 19 8 10 1002.2 1002.1 0.0
14/12:30am 17.7 15.7 14.0 79 2.1 SSW 17 20 9 11 1002.2 1002.1 0.0
14/12:00am 17.8 15.8 13.9 78 2.2 SSW 17 22 9 12 1002.1 1002.0 0.0
 
Date/Time
EDT
Tmp

°C
App
Tmp
°C
Dew
Point
°C
Rel
Hum
%
Delta-T

°C
Wind Press
QNH
hPa
Press
MSL
hPa
Rain
since
9 am
mm
Dir
 
Spd
km/h
Gust
km/h
Spd
kts
Gust
kts
13/11:30pm 17.9 15.4 14.2 79 2.1 SSW 20 24 11 13 1002.4 1002.3 0.0
13/11:00pm 17.9 14.4 14.4 80 2.0 SSW 26 30 14 16 1002.5 1002.4 0.0
13/10:30pm 18.2 14.5 13.9 76 2.5 S 26 32 14 17 1002.4 1002.3 0.0
13/10:00pm 18.2 15.8 14.5 79 2.1 SSW 20 26 11 14 1002.3 1002.2 0.0
13/09:30pm 17.8 15.4 14.5 81 1.9 SSE 20 28 11 15 1002.0 1001.9 0.0
13/09:00pm 18.1 15.9 15.0 82 1.8 SSE 20 28 11 15 1001.3 1001.2 0.0
13/08:30pm 18.2 15.0 15.3 83 1.7 SSE 26 35 14 19 1001.0 1000.9 0.0
13/08:00pm 20.0 18.2 15.6 76 2.6 SE 19 30 10 16 1000.4 1000.3 0.0
13/07:30pm 21.5 21.0 14.9 66 3.9 ESE 11 15 6 8 999.8 999.7 0.0
13/07:00pm 21.6 19.6 15.0 66 3.9 SE 19 26 10 14 999.6 999.5 0.0
13/06:30pm 21.8 19.3 17.2 75 2.8 SSE 26 32 14 17 999.4 999.3 0.0
13/06:00pm 21.8 18.7 17.4 76 2.7 SSE 30 35 16 19 999.5 999.4 0.0
13/05:30pm 22.6 21.2 18.8 79 2.4 S 24 28 13 15 999.4 999.3 0.0
13/05:00pm 22.2 19.4 19.0 82 2.0 SSW 32 35 17 19 999.2 999.1 0.0
13/04:30pm 23.6 20.3 16.1 62 4.6 SSW 28 30 15 16 999.2 999.1 0.0
13/04:00pm 24.3 23.6 15.5 58 5.3 SSW 13 20 7 11 999.3 999.2 0.0
13/03:30pm 23.9 22.6 15.7 60 5.0 ESE 17 19 9 10 999.7 999.6 0.0
13/03:00pm 23.9 22.6 16.7 64 4.4 SE 19 24 10 13 1000.3 1000.2 0.0
13/02:30pm 24.9 23.0 15.2 54 5.8 SE 19 22 10 12 1000.9 1000.8 0.0
13/02:00pm 23.9 23.9 15.1 58 5.3 SSW 9 19 5 10 1001.2 1001.1 0.0
13/01:30pm 24.8 23.0 13.4 49 6.7 NNE 15 20 8 11 1001.5 1001.4 0.0
13/01:00pm 24.3 22.6 12.6 48 6.8 N 13 17 7 9 1002.0 1001.9 0.0
13/12:30pm 23.6 22.3 13.8 54 5.7 N 13 15 7 8 1002.6 1002.5 0.0
13/12:00pm 23.3 22.3 13.5 54 5.7 N 11 15 6 8 1003.2 1003.1 0.0
13/11:30am 22.6 22.0 13.4 56 5.3 N 9 13 5 7 1003.7 1003.6 0.0
13/11:00am 21.6 20.1 14.3 63 4.3 N 15 19 8 10 1004.3 1004.2 0.0
13/10:30am 21.1 20.0 14.3 65 4.0 N 13 15 7 8 1004.4 1004.3 0.0
13/10:00am 20.2 19.0 14.1 68 3.5 NNW 13 19 7 10 1004.6 1004.5 0.0
13/09:30am 19.6 17.5 13.5 68 3.5 NNW 17 20 9 11 1005.1 1005.0 0.0
13/09:00am 19.3 15.4 13.3 68 3.4 NW 26 30 14 16 1004.9 1004.8 0.0
13/08:30am 19.2 17.1 13.6 70 3.2 NW 17 20 9 11 1004.8 1004.7 0.0
13/08:00am 19.2 16.0 13.2 68 3.4 NW 22 28 12 15 1004.9 1004.8 0.0
13/07:30am 19.2 14.5 13.2 68 3.4 NNW 30 33 16 18 1004.8 1004.7 0.0
13/07:28am 19.2 14.6 13.6 70 3.2 NNW 30 33 16 18 1004.9 1004.8 0.0
13/07:00am 19.2 13.4 13.8 71 3.1 N 37 43 20 23 1003.8 1003.7 0.0
13/06:30am 19.0 12.3 14.5 75 2.6 N 43 48 23 26 1003.5 1003.4 0.0
13/06:00am 18.9 12.8 14.2 74 2.7 N 39 44 21 24 1003.9 1003.8 0.0
13/05:30am 18.8 14.0 13.9 73 2.8 N 32 39 17 21 1004.5 1004.4 0.0
13/05:00am 18.8 13.9 13.6 72 3.0 N 32 39 17 21 1005.1 1005.0 0.0
13/04:30am 19.1 13.8 14.1 73 2.9 N 35 41 19 22 1005.1 1005.0 0.0
13/04:00am 19.2 14.1 13.6 70 3.2 N 33 39 18 21 1004.9 1004.8 0.0
13/03:30am 19.5 15.0 13.7 69 3.3 N 30 35 16 19 1006.2 1006.1 0.0
13/03:00am 19.7 14.7 13.4 67 3.6 N 32 35 17 19 1006.3 1006.2 0.0
13/02:30am 19.8 14.5 14.2 70 3.2 N 35 39 19 21 1006.6 1006.5 0.0
13/02:00am 19.9 15.6 14.5 71 3.2 N 30 37 16 20 1007.1 1007.0 0.0
13/01:30am 19.7 16.7 15.8 78 2.3 N 26 30 14 16 1007.3 1007.2 0.0
13/01:00am 19.7 17.0 17.5 87 1.3 N 28 32 15 17 1007.8 1007.7 0.0
13/12:30am 19.8 16.8 17.8 88 1.2 N 30 33 16 18 1007.9 1007.8 0.0
13/12:00am 19.8 16.3 17.8 88 1.2 N 33 37 18 20 1008.0 1007.9 0.0
 
Date/Time
EDT
Tmp

°C
App
Tmp
°C
Dew
Point
°C
Rel
Hum
%
Delta-T

°C
Wind Press
QNH
hPa
Press
MSL
hPa
Rain
since
9 am
mm
Dir
 
Spd
km/h
Gust
km/h
Spd
kts
Gust
kts
12/11:30pm 19.9 16.0 17.9 88 1.2 N 35 41 19 22 1008.6 1008.5 0.0
12/11:00pm 19.9 14.9 18.0 89 1.2 N 41 48 22 26 1008.5 1008.4 0.0
12/10:30pm 19.9 14.5 17.9 88 1.2 NNE 43 48 23 26 1009.0 1008.9 0.0
12/10:00pm 20.0 14.4 17.8 87 1.4 NNE 44 54 24 29 1009.4 1009.3 0.0
12/09:30pm 20.1 16.0 17.3 84 1.7 NNE 35 44 19 24 1009.9 1009.8 0.0
12/09:00pm 20.1 15.5 17.1 83 1.8 NNE 37 48 20 26 1009.8 1009.7 0.0
12/08:30pm 20.2 16.2 16.6 80 2.2 NNE 33 41 18 22 1010.2 1010.1 0.0
12/08:00pm 20.3 17.3 16.9 81 2.1 NNE 28 37 15 20 1010.7 1010.6 0.0
12/07:30pm 20.5 18.6 16.7 79 2.3 NNE 22 30 12 16 1011.1 1011.0 0.0
12/07:00pm 20.8 18.1 16.6 77 2.5 NNE 26 39 14 21 1011.3 1011.2 0.0
12/06:30pm 21.1 18.7 16.5 75 2.8 NNE 24 33 13 18 1011.5 1011.4 0.0
12/06:00pm 21.0 16.0 16.2 74 2.9 NNE 37 46 20 25 1011.3 1011.2 0.0
12/05:30pm 21.0 15.9 15.8 72 3.1 NNE 37 46 20 25 1011.5 1011.4 0.0
12/05:00pm 21.6 16.3 15.2 67 3.8 NNE 37 44 20 24 1011.7 1011.6 0.0
12/04:30pm 22.3 19.2 15.6 66 4.0 NNE 26 37 14 20 1012.4 1012.3 0.0
12/04:00pm 21.7 17.2 14.8 65 4.1 NNE 32 35 17 19 1012.9 1012.8 0.0
12/03:30pm 22.1 16.8 14.2 61 4.6 NNE 35 41 19 22 1013.2 1013.1 0.0
12/03:00pm 22.7 19.5 15.3 63 4.4 NNE 26 35 14 19 1013.7 1013.6 0.0
12/02:30pm 22.8 19.0 13.6 56 5.3 N 26 33 14 18 1013.8 1013.7 0.0
12/02:00pm 22.3 19.5 14.4 61 4.6 N 22 26 12 14 1014.3 1014.2 0.0
12/01:30pm 21.3 19.4 15.8 71 3.3 N 20 28 11 15 1015.0 1014.9 0.0
12/01:00pm 21.4 19.6 15.9 71 3.3 N 20 24 11 13 1015.4 1015.3 0.0
12/12:30pm 20.9 19.4 15.4 71 3.3 N 17 24 9 13 1016.0 1015.9 0.0
12/12:00pm 20.4 18.8 16.0 76 2.6 N 19 24 10 13 1016.5 1016.4 0.0
12/11:30am 19.6 19.5 15.9 79 2.2 NW 11 13 6 7 1017.1 1017.0 0.0
12/11:00am 18.8 19.3 15.1 79 2.2 N 6 7 3 4 1017.3 1017.2 0.0
12/10:30am 18.8 19.6 14.7 77 2.4 NNE 4 7 2 4 1017.7 1017.6 0.0
12/10:00am 18.2 18.4 14.3 78 2.2 WSW 6 7 3 4 1018.0 1018.0 0.0
12/09:30am 17.8 18.3 15.1 84 1.6 SW 6 9 3 5 1018.2 1018.2 0.0
12/09:00am 17.9 18.5 15.2 84 1.6 SSW 6 9 3 5 1018.1 1018.1 0.8
12/08:30am 16.8 17.8 14.3 85 1.4 SW 2 6 1 3 1018.2 1018.2 0.8
12/08:00am 16.3 17.2 14.1 87 1.2 NW 2 2 1 1 1017.9 1017.9 0.8
12/07:30am 15.9 16.1 14.1 89 1.0 ENE 6 7 3 4 1017.7 1017.6 0.8
12/07:00am 15.7 15.5 13.7 88 1.1 ENE 7 9 4 5 1017.5 1017.4 0.8
12/06:30am 15.1 15.1 13.6 91 0.8 NE 6 9 3 5 1017.5 1017.4 0.8
12/06:00am 15.6 15.5 14.0 90 0.9 NE 7 9 4 5 1017.4 1017.3 0.8
12/05:30am 15.5 15.3 13.7 89 1.0 E 7 9 4 5 1017.2 1017.1 0.8
12/05:00am 15.5 15.6 13.9 90 0.9 E 6 9 3 5 1017.4 1017.3 0.8
12/04:30am 15.4 15.8 13.8 90 0.9 ESE 4 6 2 3 1017.5 1017.4 0.8
12/04:00am 15.2 15.2 13.7 91 0.8 SE 6 9 3 5 1017.6 1017.5 0.8
12/03:30am 15.1 15.5 13.6 91 0.8 E 4 6 2 3 1017.6 1017.5 0.8
12/03:00am 15.2 15.2 13.6 90 0.9 E 6 9 3 5 1018.0 1018.0 0.8
12/02:30am 15.3 16.2 13.0 86 1.3 CALM 0 0 0 0 1018.1 1018.1 0.2
12/02:00am 15.4 16.3 12.9 85 1.4 CALM 0 0 0 0 1018.2 1018.2 0.2
12/01:30am 15.3 15.5 13.2 87 1.2 WSW 4 6 2 3 1018.4 1018.4 0.0
12/01:00am 15.2 14.6 13.6 90 0.9 W 9 13 5 7 1018.6 1018.6 0.0
12/12:30am 15.5 14.9 13.5 88 1.1 WNW 9 13 5 7 1018.6 1018.6 0.0
12/12:00am 15.8 15.6 13.1 84 1.5 WNW 6 7 3 4 1018.6 1018.6 0.0

Latest Capital City Observations: Canberra | Sydney | Melbourne | Brisbane | Adelaide | Perth | Hobart | Darwin

Other Formats:

Comma delimited format used in spreadsheet applications
http://www.bom.gov.au/fwo/IDT60901/IDT60901.95988.axf

JavaScript Object Notation format (JSON) in row-major order
http://www.bom.gov.au/fwo/IDT60901/IDT60901.95988.json